Time;durP1;ratioP1;P1;durP2;ratioP2;P2;SDS_P1;SDS_P2;PMS_P1;PMS_P2;Temp;Humidity;BMP_temperature;BMP_pressure;BME280_temperature;BME280_humidity;BME280_pressure;Samples;Min_cycle;Max_cycle;Signal;HPM_P1;HPM_P2
2021/07/22 00:00:47;;;;;;;9.85;6.07;;;19.80;99.90;;;;;;5035198;28;20017;-86
2021/07/22 00:03:13;;;;;;;7.97;5.20;;;19.90;99.90;;;;;;5035162;28;20024;-86
2021/07/22 00:05:38;;;;;;;7.47;5.60;;;19.70;99.90;;;;;;5036317;28;20523;-86
2021/07/22 00:08:09;;;;;;;8.88;5.72;;;19.50;99.90;;;;;;5038945;28;20542;-86
2021/07/22 00:10:34;;;;;;;8.68;5.78;;;19.40;99.90;;;;;;5055860;28;20021;-86
2021/07/22 00:13:00;;;;;;;8.05;5.72;;;19.40;99.90;;;;;;5035625;28;20044;-86
2021/07/22 00:15:26;;;;;;;9.63;5.78;;;19.40;99.90;;;;;;5035410;28;20036;-86
2021/07/22 00:17:51;;;;;;;8.50;5.35;;;19.40;99.90;;;;;;5035009;28;20116;-86
2021/07/22 00:20:17;;;;;;;8.07;5.93;;;19.60;99.90;;;;;;5034931;28;20546;-86
2021/07/22 00:22:43;;;;;;;8.52;5.68;;;19.70;99.90;;;;;;5053078;28;20472;-86
2021/07/22 00:25:09;;;;;;;10.80;5.47;;;19.50;99.90;;;;;;5035014;28;20029;-86
2021/07/22 00:27:35;;;;;;;7.97;6.07;;;19.40;99.90;;;;;;5034860;28;20025;-86
2021/07/22 00:30:01;;;;;;;8.85;5.70;;;19.40;99.90;;;;;;5052744;28;20029;-86
2021/07/22 00:32:26;;;;;;;11.52;5.30;;;19.30;99.90;;;;;;5034874;28;20021;-86
2021/07/22 00:34:52;;;;;;;9.57;5.47;;;19.30;99.90;;;;;;5052663;28;20048;-86
2021/07/22 00:37:18;;;;;;;11.05;5.47;;;19.60;99.90;;;;;;5049342;28;20042;-85
2021/07/22 00:39:43;;;;;;;10.35;5.72;;;19.60;99.90;;;;;;5015026;28;20021;-86
2021/07/22 00:42:09;;;;;;;7.90;5.50;;;19.40;99.90;;;;;;5032751;28;20477;-86
2021/07/22 00:44:35;;;;;;;8.55;5.38;;;19.20;99.90;;;;;;5032956;28;20140;-86
2021/07/22 00:47:00;;;;;;;12.23;5.70;;;19.30;99.90;;;;;;5018239;28;20021;-86
2021/07/22 00:49:26;;;;;;;10.27;5.80;;;19.30;99.90;;;;;;5036308;28;20030;-86
2021/07/22 00:51:52;;;;;;;9.35;5.55;;;19.10;99.90;;;;;;5018486;28;20485;-86
2021/07/22 00:54:19;;;;;;;11.60;5.50;;;19.10;99.90;;;;;;5036189;28;20033;-86
2021/07/22 00:56:44;;;;;;;9.27;5.38;;;19.20;99.90;;;;;;5018398;28;20033;-86
2021/07/22 00:59:10;;;;;;;6.32;5.18;;;19.20;99.90;;;;;;5018324;28;20103;-86
2021/07/22 01:01:36;;;;;;;9.30;5.68;;;19.40;99.90;;;;;;5018339;28;20022;-86
2021/07/22 01:04:01;;;;;;;7.53;5.30;;;19.40;99.90;;;;;;5018262;28;20384;-86
2021/07/22 01:06:27;;;;;;;8.93;5.65;;;19.40;99.90;;;;;;5018259;28;20032;-86
2021/07/22 01:08:53;;;;;;;8.60;5.57;;;19.20;99.90;;;;;;5018241;28;20073;-86
2021/07/22 01:11:18;;;;;;;12.07;6.00;;;19.10;99.90;;;;;;5018350;28;20033;-86
2021/07/22 01:13:44;;;;;;;8.00;5.10;;;19.10;99.90;;;;;;5018047;28;20029;-86
2021/07/22 01:16:10;;;;;;;10.18;5.55;;;18.90;99.90;;;;;;5035796;28;20026;-87
2021/07/22 01:18:36;;;;;;;11.50;5.32;;;19.00;99.90;;;;;;5017910;28;20033;-86
2021/07/22 01:21:01;;;;;;;9.32;5.63;;;18.80;99.90;;;;;;5017879;28;20036;-86
2021/07/22 01:23:27;;;;;;;8.25;5.28;;;19.10;99.90;;;;;;5017951;28;20025;-86
2021/07/22 01:25:53;;;;;;;7.35;5.57;;;19.20;99.90;;;;;;5017910;28;20021;-86
2021/07/22 01:28:18;;;;;;;13.20;5.43;;;19.20;99.90;;;;;;5017855;28;20080;-86
2021/07/22 01:30:44;;;;;;;7.97;4.95;;;19.10;99.90;;;;;;5017787;28;20029;-86
2021/07/22 01:33:10;;;;;;;9.13;5.90;;;18.90;99.90;;;;;;5018300;28;20112;-86
2021/07/22 01:35:37;;;;;;;7.65;5.63;;;18.90;99.90;;;;;;5019229;28;20060;-86
2021/07/22 01:38:03;;;;;;;11.70;6.00;;;19.00;99.90;;;;;;5027937;28;20045;-86
2021/07/22 01:40:29;;;;;;;8.85;5.75;;;18.90;99.90;;;;;;5038836;28;20033;-86
2021/07/22 01:42:55;;;;;;;10.50;5.60;;;18.90;99.90;;;;;;5056361;28;20028;-86
2021/07/22 01:45:21;;;;;;;8.10;5.10;;;19.00;99.90;;;;;;5038654;28;20147;-86
2021/07/22 01:47:46;;;;;;;9.35;5.47;;;19.10;99.90;;;;;;5038103;28;20063;-86
2021/07/22 01:50:12;;;;;;;8.48;5.43;;;19.20;99.90;;;;;;5038503;28;20035;-86
2021/07/22 01:52:38;;;;;;;9.25;5.57;;;19.20;99.90;;;;;;5038535;28;20425;-86
2021/07/22 01:55:04;;;;;;;9.05;5.32;;;19.10;99.90;;;;;;5056755;28;20108;-86
2021/07/22 01:57:30;;;;;;;9.13;5.05;;;18.90;99.90;;;;;;5038328;28;20025;-86
2021/07/22 02:00:04;;;;;;;8.75;5.45;;;18.90;99.90;;;;;;5038379;28;20400;-86
2021/07/22 02:02:30;;;;;;;8.85;5.50;;;18.90;99.90;;;;;;5038355;28;20439;-87
2021/07/22 02:04:55;;;;;;;9.50;5.95;;;18.80;99.90;;;;;;5056350;28;20102;-86
2021/07/22 02:07:21;;;;;;;6.75;4.88;;;18.70;99.90;;;;;;5038010;28;20060;-86
2021/07/22 02:09:47;;;;;;;7.10;5.18;;;18.70;99.90;;;;;;5038956;28;20029;-86
2021/07/22 02:12:12;;;;;;;8.02;5.47;;;18.50;99.90;;;;;;5038407;28;20025;-86
2021/07/22 02:14:39;;;;;;;8.13;5.35;;;18.50;99.90;;;;;;5037384;28;20045;-86
2021/07/22 02:17:04;;;;;;;12.43;5.45;;;18.60;99.90;;;;;;5060712;28;20025;-86
2021/07/22 02:19:30;;;;;;;9.18;5.10;;;18.70;99.90;;;;;;5061708;28;20036;-85
2021/07/22 02:21:56;;;;;;;8.85;5.50;;;18.80;99.90;;;;;;5039978;28;20021;-86
2021/07/22 02:24:22;;;;;;;10.02;5.18;;;18.90;99.90;;;;;;5038869;28;20032;-86
2021/07/22 02:26:47;;;;;;;9.25;5.97;;;18.60;99.90;;;;;;5038037;28;20078;-86
2021/07/22 02:29:13;;;;;;;7.28;5.38;;;18.60;99.90;;;;;;5037818;28;20032;-86
2021/07/22 02:31:39;;;;;;;7.97;5.68;;;18.50;99.90;;;;;;5037847;28;20028;-86
2021/07/22 02:34:04;;;;;;;6.70;5.60;;;18.60;99.90;;;;;;5037483;28;20025;-86
2021/07/22 02:36:32;;;;;;;7.93;5.53;;;18.60;99.90;;;;;;5037714;28;20029;-85
2021/07/22 02:38:58;;;;;;;11.68;5.78;;;18.60;99.90;;;;;;5037881;28;20378;-86
2021/07/22 02:41:23;;;;;;;8.45;5.55;;;18.60;99.90;;;;;;5017895;28;20023;-86
2021/07/22 02:43:49;;;;;;;10.18;5.30;;;18.50;99.90;;;;;;5035497;28;20028;-86
2021/07/22 02:46:15;;;;;;;6.88;5.22;;;18.60;99.90;;;;;;5017555;28;20025;-87
2021/07/22 02:48:40;;;;;;;8.90;5.45;;;18.40;99.90;;;;;;5017601;28;20025;-87
2021/07/22 02:51:07;;;;;;;9.48;4.80;;;18.30;99.90;;;;;;5035544;28;20390;-86
2021/07/22 02:53:34;;;;;;;8.55;5.35;;;18.50;99.90;;;;;;5017655;28;20057;-86
2021/07/22 02:56:02;;;;;;;8.32;5.32;;;18.60;99.90;;;;;;5017182;28;20392;-86
2021/07/22 02:58:28;;;;;;;8.63;4.82;;;18.60;99.90;;;;;;5017324;28;20079;-86
2021/07/22 03:00:54;;;;;;;7.97;4.68;;;18.50;99.90;;;;;;5017628;28;20068;-86
2021/07/22 03:03:19;;;;;;;12.85;5.25;;;18.20;99.90;;;;;;5017505;28;20036;-86
2021/07/22 03:05:45;;;;;;;7.07;5.40;;;18.10;99.90;;;;;;5035122;28;20017;-86
2021/07/22 03:08:11;;;;;;;6.63;5.57;;;18.10;99.90;;;;;;5035274;28;20064;-86
2021/07/22 03:10:37;;;;;;;6.85;5.47;;;18.20;99.90;;;;;;5035171;28;20021;-86
2021/07/22 03:13:05;;;;;;;9.80;5.32;;;18.30;99.90;;;;;;5034695;28;20481;-86
2021/07/22 03:15:31;;;;;;;8.45;5.63;;;18.30;99.90;;;;;;5017554;28;20071;-86
2021/07/22 03:17:57;;;;;;;11.43;5.88;;;17.80;99.90;;;;;;5017502;28;20389;-87
2021/07/22 03:20:23;;;;;;;8.27;5.70;;;18.00;99.90;;;;;;5035188;28;20024;-86
2021/07/22 03:22:49;;;;;;;7.68;5.00;;;18.00;99.90;;;;;;5017339;28;20018;-87
2021/07/22 03:25:15;;;;;;;8.57;5.00;;;18.10;99.90;;;;;;5035062;28;20017;-86
2021/07/22 03:27:40;;;;;;;7.43;4.95;;;18.10;99.90;;;;;;5017302;28;20496;-86
2021/07/22 03:30:07;;;;;;;8.07;5.22;;;18.00;99.90;;;;;;5016712;28;20120;-87
2021/07/22 03:32:34;;;;;;;13.05;5.32;;;18.10;99.90;;;;;;5017377;28;20034;-87
2021/07/22 03:35:00;;;;;;;11.25;5.53;;;18.00;99.90;;;;;;5017474;28;20021;-87
2021/07/22 03:37:25;;;;;;;8.35;5.20;;;18.00;99.90;;;;;;5021181;28;20045;-88
2021/07/22 03:39:51;;;;;;;8.45;5.20;;;18.30;99.90;;;;;;5055094;28;20032;-88
2021/07/22 03:42:17;;;;;;;8.95;5.13;;;18.20;99.90;;;;;;5036781;28;20029;-87
2021/07/22 03:44:43;;;;;;;7.10;5.13;;;18.10;99.90;;;;;;5054731;28;20027;-88
2021/07/22 03:47:09;;;;;;;9.65;5.78;;;18.10;99.90;;;;;;5054231;28;20023;-87
2021/07/22 03:49:35;;;;;;;6.95;5.32;;;17.70;99.90;;;;;;5037086;28;20025;-86
2021/07/22 03:52:01;;;;;;;9.10;4.82;;;17.60;99.90;;;;;;5036501;28;20480;-87
2021/07/22 03:54:27;;;;;;;11.57;5.88;;;17.60;99.90;;;;;;5054347;28;20017;-86
2021/07/22 03:56:53;;;;;;;10.68;5.43;;;17.80;99.90;;;;;;5036682;28;20029;-86
2021/07/22 03:59:19;;;;;;;9.93;5.75;;;17.80;99.90;;;;;;5036822;28;20384;-86
2021/07/22 04:01:45;;;;;;;9.57;5.68;;;17.80;99.90;;;;;;5054638;28;20161;-87
2021/07/22 04:04:11;;;;;;;7.80;5.63;;;17.90;99.90;;;;;;5036207;28;20021;-87
2021/07/22 04:06:37;;;;;;;7.65;5.45;;;18.00;99.90;;;;;;5036794;28;20025;-87
2021/07/22 04:09:04;;;;;;;10.75;5.38;;;18.00;99.90;;;;;;5036689;28;20087;-87
2021/07/22 04:11:30;;;;;;;9.38;5.40;;;17.90;99.90;;;;;;5036678;28;20031;-87
2021/07/22 04:13:55;;;;;;;9.52;5.25;;;18.00;99.90;;;;;;5054581;28;20032;-87
2021/07/22 04:16:21;;;;;;;11.40;5.40;;;17.90;99.90;;;;;;5036931;28;20455;-87
2021/07/22 04:18:47;;;;;;;10.55;5.13;;;17.80;99.90;;;;;;5036344;28;20033;-87
2021/07/22 04:21:12;;;;;;;8.23;5.15;;;18.00;99.90;;;;;;5038748;28;20092;-87
2021/07/22 04:23:38;;;;;;;6.80;5.15;;;17.80;99.90;;;;;;5040560;28;20075;-87
2021/07/22 04:26:04;;;;;;;7.10;5.03;;;17.60;99.90;;;;;;5039788;28;20025;-88
2021/07/22 04:28:29;;;;;;;6.97;5.10;;;17.60;99.90;;;;;;5065641;28;20500;-87
2021/07/22 04:30:55;;;;;;;7.50;4.95;;;17.80;99.90;;;;;;5064756;28;20033;-87
2021/07/22 04:33:21;;;;;;;8.50;5.07;;;17.80;99.90;;;;;;5060526;28;20025;-87
2021/07/22 04:35:46;;;;;;;8.73;5.30;;;17.90;99.90;;;;;;5040062;28;20396;-88
2021/07/22 04:38:12;;;;;;;11.52;5.22;;;18.00;99.90;;;;;;5047666;28;20053;-88
2021/07/22 04:40:38;;;;;;;7.95;4.97;;;17.80;99.90;;;;;;5020368;28;20053;-87
2021/07/22 04:43:04;;;;;;;6.63;5.13;;;17.80;99.90;;;;;;5020489;28;20036;-87
2021/07/22 04:45:29;;;;;;;8.07;5.22;;;17.90;99.90;;;;;;5020267;28;20022;-87
2021/07/22 04:47:55;;;;;;;9.60;5.30;;;18.10;99.90;;;;;;5020422;28;20112;-87
2021/07/22 04:50:21;;;;;;;7.80;4.97;;;18.00;99.90;;;;;;5020178;28;20060;-87
2021/07/22 04:52:47;;;;;;;7.40;5.00;;;18.00;99.90;;;;;;5019613;28;20052;-87
2021/07/22 04:55:12;;;;;;;8.13;5.35;;;18.20;99.90;;;;;;5038095;28;20033;-88
2021/07/22 04:57:38;;;;;;;11.07;5.75;;;18.20;99.90;;;;;;5019682;28;20021;-88
2021/07/22 05:00:05;;;;;;;8.95;5.43;;;18.20;99.90;;;;;;5020092;28;20021;-87
2021/07/22 05:02:31;;;;;;;6.63;5.10;;;18.20;99.90;;;;;;5020445;28;20025;-87
2021/07/22 05:04:57;;;;;;;7.93;5.25;;;18.10;99.90;;;;;;5037682;28;20017;-88
2021/07/22 05:07:22;;;;;;;11.45;5.70;;;18.20;99.90;;;;;;5037293;28;20358;-87
2021/07/22 05:09:48;;;;;;;10.07;5.50;;;18.30;99.90;;;;;;5019391;28;20463;-87
2021/07/22 05:12:14;;;;;;;10.43;5.55;;;18.40;99.90;;;;;;5019670;28;20026;-86
2021/07/22 05:14:40;;;;;;;7.78;5.30;;;18.40;99.90;;;;;;5019347;28;20051;-86
2021/07/22 05:17:06;;;;;;;9.90;5.60;;;18.40;99.90;;;;;;5019616;28;20049;-87
2021/07/22 05:19:31;;;;;;;7.50;5.60;;;18.40;99.90;;;;;;5019742;28;20021;-86
2021/07/22 05:21:57;;;;;;;9.93;5.25;;;18.20;99.90;;;;;;5019477;28;20045;-87
2021/07/22 05:24:23;;;;;;;14.77;6.10;;;18.10;99.90;;;;;;5019101;28;20083;-86
2021/07/22 05:26:49;;;;;;;10.52;5.63;;;18.00;99.90;;;;;;5019631;28;20021;-87
2021/07/22 05:29:15;;;;;;;10.90;5.78;;;17.80;99.90;;;;;;5019519;28;20512;-87
2021/07/22 05:31:42;;;;;;;8.27;5.97;;;17.70;99.90;;;;;;5037187;28;20025;-88
2021/07/22 05:34:09;;;;;;;9.93;5.70;;;17.90;99.90;;;;;;5019290;28;20029;-88
2021/07/22 05:36:34;;;;;;;7.05;5.20;;;18.20;99.90;;;;;;5019229;28;20025;-87
2021/07/22 05:39:00;;;;;;;10.57;5.57;;;18.20;99.90;;;;;;5036024;28;20045;-87
2021/07/22 05:41:26;;;;;;;9.30;5.68;;;18.50;99.90;;;;;;5038503;28;20082;-87
2021/07/22 05:43:52;;;;;;;9.27;5.82;;;18.40;99.90;;;;;;5039081;28;20033;-88
2021/07/22 05:46:21;;;;;;;11.35;5.50;;;18.40;99.90;;;;;;5038588;28;20027;-87
2021/07/22 05:48:47;;;;;;;8.05;5.50;;;18.50;99.90;;;;;;5039008;28;20116;-87
2021/07/22 05:51:14;;;;;;;7.38;5.20;;;18.60;99.90;;;;;;5038993;28;20484;-87
2021/07/22 05:53:39;;;;;;;9.68;5.70;;;18.80;99.90;;;;;;5039238;28;20021;-87
2021/07/22 05:56:05;;;;;;;8.75;5.63;;;18.80;99.90;;;;;;5038707;28;20388;-87
2021/07/22 05:58:31;;;;;;;9.88;6.15;;;18.70;99.90;;;;;;5056047;28;20456;-88
2021/07/22 06:00:57;;;;;;;9.65;6.07;;;18.60;99.90;;;;;;5038642;28;20024;-88
2021/07/22 06:03:23;;;;;;;11.15;4.70;;;18.60;99.90;;;;;;5038350;28;20032;-87
2021/07/22 06:05:49;;;;;;;12.07;5.50;;;18.80;99.90;;;;;;5038590;28;20025;-87
2021/07/22 06:08:15;;;;;;;9.77;5.70;;;18.90;99.90;;;;;;5038924;28;20024;-87
2021/07/22 06:10:41;;;;;;;9.18;5.68;;;19.10;99.90;;;;;;5038739;28;20396;-88
2021/07/22 06:13:07;;;;;;;16.23;5.60;;;19.10;99.90;;;;;;5038493;28;20029;-87
2021/07/22 06:15:33;;;;;;;9.52;5.82;;;19.20;99.90;;;;;;5037791;28;20507;-87
2021/07/22 06:17:59;;;;;;;11.32;6.00;;;19.20;99.90;;;;;;5038010;28;20107;-88
2021/07/22 06:20:24;;;;;;;6.40;5.40;;;19.30;99.90;;;;;;5038173;28;20017;-88
2021/07/22 06:22:50;;;;;;;5.90;5.07;;;19.30;99.90;;;;;;5038452;28;20116;-88
2021/07/22 06:25:16;;;;;;;13.98;5.53;;;19.40;99.90;;;;;;5055943;28;20013;-88
2021/07/22 06:27:43;;;;;;;7.47;5.25;;;19.50;99.90;;;;;;5055918;28;20036;-87
2021/07/22 06:30:10;;;;;;;8.77;5.78;;;19.50;99.90;;;;;;5037674;28;20028;-88
2021/07/22 06:32:36;;;;;;;9.65;5.25;;;19.70;99.90;;;;;;5038397;28;20491;-87
2021/07/22 06:35:01;;;;;;;8.25;5.15;;;19.70;99.90;;;;;;5041396;28;20056;-87
2021/07/22 06:37:27;;;;;;;9.90;5.20;;;19.70;99.90;;;;;;5040330;28;20055;-89
2021/07/22 06:39:53;;;;;;;7.45;5.10;;;19.70;99.90;;;;;;5039664;28;20028;-88
2021/07/22 06:42:18;;;;;;;11.70;6.15;;;19.80;99.90;;;;;;5057063;28;20091;-87
2021/07/22 06:44:44;;;;;;;10.82;5.10;;;19.90;99.90;;;;;;5037505;28;20493;-87
2021/07/22 06:47:10;;;;;;;7.10;4.85;;;20.00;99.90;;;;;;5037757;28;20150;-87
2021/07/22 06:49:35;;;;;;;7.97;5.00;;;20.20;99.90;;;;;;5037095;28;20107;-87
2021/07/22 06:52:01;;;;;;;12.88;5.10;;;20.30;99.90;;;;;;5055817;28;20090;-87
2021/07/22 06:54:27;;;;;;;12.15;5.15;;;20.40;99.90;;;;;;5055697;28;20056;-87
2021/07/22 06:56:53;;;;;;;7.55;5.20;;;20.30;99.90;;;;;;5037671;28;20476;-87
2021/07/22 06:59:18;;;;;;;10.27;5.47;;;20.30;99.90;;;;;;5037167;28;20029;-88
2021/07/22 07:01:44;;;;;;;9.48;5.03;;;20.50;99.90;;;;;;5037578;28;20059;-87
2021/07/22 07:04:10;;;;;;;5.80;4.80;;;20.50;99.90;;;;;;5054762;28;20032;-88
2021/07/22 07:06:36;;;;;;;12.07;4.80;;;20.60;99.90;;;;;;5037150;28;20021;-87
2021/07/22 07:09:05;;;;;;;9.10;4.90;;;20.80;99.90;;;;;;5055255;28;20503;-87
2021/07/22 07:11:31;;;;;;;6.13;4.68;;;20.80;99.90;;;;;;5037257;28;20119;-87
2021/07/22 07:13:57;;;;;;;9.85;5.50;;;21.00;99.90;;;;;;5037566;28;20025;-89
2021/07/22 07:16:23;;;;;;;10.95;5.45;;;21.10;99.90;;;;;;5055524;28;20436;-87
2021/07/22 07:18:48;;;;;;;15.85;5.13;;;21.10;99.90;;;;;;5036997;28;20033;-86
2021/07/22 07:21:15;;;;;;;10.10;5.35;;;21.10;99.90;;;;;;5036847;28;20021;-86
2021/07/22 07:23:40;;;;;;;7.13;4.78;;;21.10;99.90;;;;;;5036796;28;20021;-87
2021/07/22 07:26:10;;;;;;;10.63;4.95;;;21.20;99.90;;;;;;5037257;28;20021;-87
2021/07/22 07:28:37;;;;;;;11.52;5.15;;;21.30;99.90;;;;;;5037124;28;20025;-87
2021/07/22 07:31:03;;;;;;;13.98;5.68;;;21.30;99.90;;;;;;5038210;28;20040;-87
2021/07/22 07:33:28;;;;;;;10.18;5.00;;;21.30;99.90;;;;;;5038899;28;20167;-87
2021/07/22 07:35:55;;;;;;;7.82;4.90;;;21.30;99.90;;;;;;5038504;28;20076;-86
2021/07/22 07:38:21;;;;;;;13.07;4.97;;;21.40;99.90;;;;;;5035499;28;20052;-87
2021/07/22 07:40:47;;;;;;;8.20;4.57;;;21.60;99.90;;;;;;5053495;28;20025;-87
2021/07/22 07:43:17;;;;;;;14.50;5.68;;;21.70;99.90;;;;;;5035360;28;20094;-87
2021/07/22 07:45:43;;;;;;;11.07;4.93;;;21.80;99.90;;;;;;5053474;28;20104;-87
2021/07/22 07:48:09;;;;;;;9.85;4.78;;;21.80;99.90;;;;;;5035271;28;20063;-87
2021/07/22 07:50:35;;;;;;;11.45;4.97;;;21.90;99.90;;;;;;5053240;28;20544;-87
2021/07/22 07:53:14;;;;;;;10.13;4.72;;;22.00;99.90;;;;;;5035293;28;20120;-87
2021/07/22 07:55:40;;;;;;;13.38;5.30;;;22.10;99.90;;;;;;5056646;28;20035;-87
2021/07/22 07:58:06;;;;;;;13.38;5.03;;;22.10;99.90;;;;;;5057172;28;20058;-87
2021/07/22 08:00:32;;;;;;;17.48;5.13;;;22.20;99.90;;;;;;5039833;28;20472;-87
2021/07/22 08:03:00;;;;;;;13.82;5.32;;;22.30;99.90;;;;;;5039664;28;20028;-87
2021/07/22 08:05:27;;;;;;;15.77;5.45;;;22.40;99.90;;;;;;5057497;28;20024;-87
2021/07/22 08:07:53;;;;;;;13.93;5.20;;;22.50;99.90;;;;;;5039211;28;20036;-87
2021/07/22 08:10:19;;;;;;;17.23;5.32;;;22.60;99.90;;;;;;5039064;28;20021;-87
2021/07/22 08:12:45;;;;;;;13.40;5.28;;;22.50;99.90;;;;;;5039112;28;20032;-87
2021/07/22 08:15:11;;;;;;;17.52;5.03;;;22.50;99.90;;;;;;5039071;28;20025;-87
2021/07/22 08:17:37;;;;;;;20.95;5.78;;;22.70;99.90;;;;;;5039348;28;20365;-87
2021/07/22 08:20:07;;;;;;;9.43;5.10;;;23.00;99.90;;;;;;5038925;28;20033;-87
2021/07/22 08:22:33;;;;;;;15.57;5.68;;;23.10;99.90;;;;;;5038935;28;20446;-87
2021/07/22 08:25:00;;;;;;;17.10;5.53;;;23.20;99.90;;;;;;5039466;28;20091;-87
2021/07/22 08:27:31;;;;;;;11.02;5.53;;;23.20;99.90;;;;;;5056685;28;20021;-87
2021/07/22 08:29:57;;;;;;;12.52;5.43;;;23.30;99.90;;;;;;5039059;28;20106;-87
2021/07/22 08:32:24;;;;;;;13.52;5.47;;;23.40;99.90;;;;;;5039885;28;20399;-88
2021/07/22 08:34:50;;;;;;;10.57;4.97;;;23.40;99.90;;;;;;5062143;28;20021;-87
2021/07/22 08:37:16;;;;;;;10.13;5.65;;;23.40;99.90;;;;;;5037288;28;21505;-87
2021/07/22 08:39:45;;;;;;;14.30;5.68;;;23.50;99.90;;;;;;5019205;28;20030;-87
2021/07/22 08:42:12;;;;;;;15.77;5.80;;;23.70;99.90;;;;;;5019028;28;20026;-87
2021/07/22 08:44:41;;;;;;;15.10;5.50;;;23.80;99.90;;;;;;5018722;28;20021;-87
2021/07/22 08:47:08;;;;;;;13.48;5.32;;;24.00;99.90;;;;;;5018747;28;20116;-87
2021/07/22 08:49:36;;;;;;;15.90;5.53;;;24.00;99.90;;;;;;5018646;28;20022;-87
2021/07/22 08:52:07;;;;;;;15.75;5.10;;;24.00;99.90;;;;;;5018621;28;20021;-87
2021/07/22 08:54:33;;;;;;;15.10;5.32;;;24.00;99.90;;;;;;5018532;28;20029;-87
2021/07/22 08:57:00;;;;;;;18.40;5.70;;;24.00;99.90;;;;;;5018492;28;20094;-87
2021/07/22 08:59:28;;;;;;;12.68;4.93;;;24.10;99.90;;;;;;5018322;28;20065;-87
2021/07/22 09:01:56;;;;;;;10.50;5.18;;;24.20;99.90;;;;;;5018457;28;20028;-87
2021/07/22 09:04:21;;;;;;;6.32;5.20;;;24.50;99.90;;;;;;5018435;28;20087;-87
2021/07/22 09:06:47;;;;;;;8.55;5.25;;;24.60;99.90;;;;;;5017739;28;20133;-87
2021/07/22 09:09:13;;;;;;;7.88;4.60;;;24.70;99.90;;;;;;5018208;28;20033;-87
2021/07/22 09:12:00;;;;;;;8.88;5.20;;;24.90;99.90;;;;;;5035916;28;20104;-86
2021/07/22 09:14:31;;;;;;;11.80;5.93;;;24.90;99.70;;;;;;5018096;28;20040;-87
2021/07/22 09:16:58;;;;;;;11.13;5.32;;;25.10;99.20;;;;;;5018152;28;20112;-87
2021/07/22 09:19:40;;;;;;;11.50;5.15;;;25.30;99.40;;;;;;5035859;28;20021;-87
2021/07/22 09:22:08;;;;;;;6.88;5.05;;;25.40;98.40;;;;;;5018153;28;20021;-87
2021/07/22 09:24:51;;;;;;;11.73;5.43;;;25.60;98.20;;;;;;5017923;28;20021;-87
2021/07/22 09:27:43;;;;;;;7.85;5.22;;;25.30;98.20;;;;;;5017923;28;20025;-87
2021/07/22 09:30:17;;;;;;;10.88;4.75;;;25.40;98.40;;;;;;5017893;28;20025;-87
2021/07/22 09:32:45;;;;;;;7.05;5.00;;;25.60;98.00;;;;;;5017857;28;20068;-87
2021/07/22 09:35:16;;;;;;;7.80;5.03;;;25.70;97.70;;;;;;5017766;28;20021;-87
2021/07/22 09:37:50;;;;;;;9.77;5.15;;;25.90;97.20;;;;;;5023610;28;20408;-87
2021/07/22 09:40:34;;;;;;;10.10;5.45;;;26.00;96.70;;;;;;5037535;28;20021;-87
2021/07/22 09:43:00;;;;;;;7.35;4.90;;;26.00;95.70;;;;;;5037360;28;20017;-87
2021/07/22 09:45:27;;;;;;;9.65;5.18;;;26.20;97.30;;;;;;5055830;28;20384;-87
2021/07/22 09:47:55;;;;;;;9.52;5.30;;;26.30;96.60;;;;;;5038666;28;20496;-87
2021/07/22 09:50:23;;;;;;;14.10;5.20;;;26.40;95.70;;;;;;5037983;28;20017;-87
2021/07/22 09:53:06;;;;;;;12.65;5.57;;;26.50;96.20;;;;;;5037723;28;20021;-87
2021/07/22 09:55:33;;;;;;;13.73;5.10;;;26.40;96.80;;;;;;5037346;28;20035;-87
2021/07/22 09:58:08;;;;;;;8.20;5.18;;;26.40;96.20;;;;;;5037016;28;20023;-87
2021/07/22 10:00:37;;;;;;;11.95;5.10;;;26.70;96.10;;;;;;5037220;28;20048;-87
2021/07/22 10:03:04;;;;;;;8.43;5.25;;;27.00;95.20;;;;;;5054898;28;20021;-87
2021/07/22 10:05:40;;;;;;;7.93;5.00;;;26.90;96.10;;;;;;5054836;28;20024;-87
2021/07/22 10:08:07;;;;;;;8.70;5.68;;;26.90;96.20;;;;;;5054816;28;20083;-87
2021/07/22 10:10:35;;;;;;;14.07;5.63;;;26.80;94.70;;;;;;5054754;28;20044;-87
2021/07/22 10:13:02;;;;;;;9.25;5.57;;;26.80;94.60;;;;;;5036825;28;20031;-87
2021/07/22 10:15:31;;;;;;;7.10;5.35;;;27.20;95.40;;;;;;5036718;28;20029;-87
2021/07/22 10:17:58;;;;;;;10.52;5.30;;;27.30;95.10;;;;;;5035892;28;20499;-87
2021/07/22 10:20:28;;;;;;;9.18;5.75;;;27.30;96.00;;;;;;5037035;28;20475;-87
2021/07/22 10:22:55;;;;;;;11.32;5.85;;;27.10;95.70;;;;;;5061908;28;20021;-86
2021/07/22 10:25:21;;;;;;;13.65;5.78;;;27.30;95.20;;;;;;5039411;28;20028;-87
2021/07/22 10:27:47;;;;;;;6.85;5.22;;;27.40;95.30;;;;;;5037612;28;20021;-86
2021/07/22 10:30:18;;;;;;;15.20;5.75;;;27.60;95.70;;;;;;5036761;28;20436;-86
2021/07/22 10:32:55;;;;;;;14.82;4.85;;;27.60;95.40;;;;;;5054520;28;20017;-86
2021/07/22 10:35:25;;;;;;;9.30;5.10;;;27.90;95.50;;;;;;5054264;28;20056;-87
2021/07/22 10:38:10;;;;;;;11.18;5.35;;;28.20;95.20;;;;;;5046405;28;20120;-87
2021/07/22 10:40:51;;;;;;;9.13;5.60;;;28.10;94.50;;;;;;5016642;28;20065;-87
2021/07/22 10:43:35;;;;;;;7.03;5.22;;;28.10;94.10;;;;;;5017348;28;20373;-87
2021/07/22 10:46:02;;;;;;;12.53;5.50;;;27.90;94.80;;;;;;5016410;28;20052;-87
2021/07/22 10:48:28;;;;;;;13.98;6.13;;;28.30;94.40;;;;;;5016382;28;20032;-87
2021/07/22 10:50:54;;;;;;;15.98;5.50;;;28.40;93.80;;;;;;5034096;28;20100;-87
2021/07/22 10:53:36;;;;;;;13.23;5.75;;;28.60;93.50;;;;;;5034061;28;20060;-86
2021/07/22 10:56:03;;;;;;;10.52;5.85;;;28.60;93.10;;;;;;5016244;28;20032;-87
2021/07/22 10:58:33;;;;;;;9.50;5.38;;;28.70;93.00;;;;;;5016173;28;20032;-87
2021/07/22 11:01:00;;;;;;;9.30;5.85;;;29.20;92.80;;;;;;5034248;28;20022;-87
2021/07/22 11:06:07;;;;;;;8.48;5.65;;;29.20;92.40;;;;;;5034151;28;20079;-87
2021/07/22 11:08:36;;;;;;;10.52;5.97;;;29.40;91.80;;;;;;5016097;28;20138;-87
2021/07/22 11:11:13;;;;;;;10.48;6.00;;;29.20;91.90;;;;;;5016311;28;20041;-87
2021/07/22 11:13:46;;;;;;;10.95;5.32;;;29.40;92.10;;;;;;5033753;28;20025;-87
2021/07/22 11:16:29;;;;;;;9.63;6.45;;;29.50;91.80;;;;;;5015997;28;20485;-87
2021/07/22 11:19:21;;;;;;;12.20;5.65;;;29.50;90.70;;;;;;5015978;28;20030;-87
2021/07/22 11:21:50;;;;;;;11.82;5.80;;;29.80;91.50;;;;;;5013929;28;20037;-87
2021/07/22 11:24:25;;;;;;;12.90;5.93;;;29.90;91.80;;;;;;5015874;28;20476;-87
2021/07/22 11:26:52;;;;;;;10.57;6.53;;;30.10;90.40;;;;;;5015916;28;20564;-87
2021/07/22 11:29:23;;;;;;;10.48;6.57;;;29.90;90.60;;;;;;5015490;28;20507;-87
2021/07/22 11:31:50;;;;;;;11.20;5.95;;;29.80;90.20;;;;;;5015768;28;20052;-87
2021/07/22 11:34:25;;;;;;;7.78;5.13;;;29.90;90.00;;;;;;5015995;28;20397;-87
2021/07/22 11:36:54;;;;;;;10.23;6.25;;;30.50;90.50;;;;;;5015588;28;20026;-87
2021/07/22 11:39:43;;;;;;;17.40;6.53;;;30.30;90.10;;;;;;5033155;28;20045;-87
2021/07/22 11:42:12;;;;;;;8.23;5.85;;;30.40;89.40;;;;;;5015844;28;20057;-87
2021/07/22 11:44:38;;;;;;;17.58;5.85;;;30.50;89.30;;;;;;5015617;28;20029;-87
2021/07/22 11:47:15;;;;;;;12.18;6.20;;;30.50;90.20;;;;;;5033258;28;20032;-87
2021/07/22 11:49:41;;;;;;;8.00;5.57;;;30.70;90.00;;;;;;5015692;28;20030;-88
2021/07/22 11:52:06;;;;;;;9.57;5.75;;;30.80;89.80;;;;;;5033189;28;20029;-87
2021/07/22 11:54:32;;;;;;;8.95;5.68;;;30.50;88.90;;;;;;5015587;28;20037;-87
2021/07/22 11:56:58;;;;;;;12.25;5.53;;;30.80;87.70;;;;;;5015501;28;20371;-87
2021/07/22 11:59:31;;;;;;;13.88;6.05;;;30.70;88.30;;;;;;5033076;28;20504;-86
2021/07/22 12:01:59;;;;;;;12.10;6.35;;;30.80;87.40;;;;;;5015400;28;20025;-86
2021/07/22 12:04:35;;;;;;;10.50;5.72;;;31.10;87.10;;;;;;5015351;28;20539;-87
2021/07/22 12:07:05;;;;;;;10.88;6.15;;;31.00;88.00;;;;;;5015463;28;20492;-87
2021/07/22 12:09:31;;;;;;;12.02;6.25;;;31.30;88.70;;;;;;5015380;28;20056;-87
2021/07/22 12:12:01;;;;;;;9.70;5.78;;;31.00;85.40;;;;;;5033033;28;20037;-87
2021/07/22 12:14:37;;;;;;;10.27;6.20;;;31.50;84.80;;;;;;5019721;28;20025;-87
2021/07/22 12:17:09;;;;;;;9.77;5.95;;;31.70;85.40;;;;;;5018796;28;20037;-87
2021/07/22 12:19:37;;;;;;;13.45;6.13;;;31.70;84.40;;;;;;5033769;28;20021;-87
2021/07/22 12:22:29;;;;;;;10.38;5.65;;;31.10;84.20;;;;;;5015381;28;20053;-87
2021/07/22 12:25:01;;;;;;;9.88;6.07;;;31.00;85.80;;;;;;5015252;28;20121;-87
2021/07/22 12:27:32;;;;;;;7.30;5.72;;;31.50;84.20;;;;;;5015288;28;20076;-87
2021/07/22 12:29:59;;;;;;;9.80;5.80;;;31.80;83.20;;;;;;5015514;28;20061;-87
2021/07/22 12:32:25;;;;;;;8.90;6.18;;;31.90;84.00;;;;;;5015156;28;20029;-87
2021/07/22 12:34:51;;;;;;;13.00;6.10;;;32.00;82.80;;;;;;5015095;28;20021;-87
2021/07/22 12:37:17;;;;;;;8.25;5.63;;;32.10;82.80;;;;;;5032611;28;20424;-87
2021/07/22 12:39:43;;;;;;;9.40;6.10;;;32.60;83.60;;;;;;5033053;28;20033;-87
2021/07/22 12:42:11;;;;;;;8.68;5.63;;;31.90;82.30;;;;;;5017049;28;20029;-87
2021/07/22 12:44:50;;;;;;;10.52;5.90;;;31.10;84.20;;;;;;5036514;28;20021;-87
2021/07/22 12:47:29;;;;;;;8.27;6.20;;;30.80;85.10;;;;;;5018898;28;20021;-87